This is the latest recevied weather packets stored in our database for station/object N4OGP-WX. If no packets are shown the sender has not sent any weather packets the latest 10 day(s).
| Time | Temp. | Humidity | Pressure | Rain* | Wind** | Luminosity | Snow |
|---|---|---|---|---|---|---|---|
| 1777495369 | 23.89° C | 42% | 1020.4 hPa | 0 mm | - | - | - |
| 1777495309 | 26.11° C | 82% | 1010.1 hPa | 0 mm | - | - | - |
| 1777495249 | 23.89° C | 42% | 1020.4 hPa | 0 mm | - | - | - |
| 1777495189 | 23.89° C | 42% | 1020.4 hPa | 0 mm | - | - | - |
| 1777495129 | 26.11° C | 82% | 1010.1 hPa | 0 mm | - | - | - |
| 1777495069 | 23.89° C | 42% | 1020.4 hPa | 0 mm | - | - | - |
| 1777495009 | 26.11° C | 82% | 1010.2 hPa | 0 mm | - | - | - |
| 1777494949 | 26.11° C | 81% | 1010.2 hPa | 0 mm | - | - | - |
| 1777494859 | 23.89° C | 42% | 1020.4 hPa | 0 mm | - | - | - |
| 1777494799 | 26.11° C | 81% | 1010.3 hPa | 0 mm | - | - | - |
| 1777494739 | 26.11° C | 81% | 1010.3 hPa | 0 mm | - | - | - |
| 1777494679 | 23.89° C | 42% | 1020.4 hPa | 0 mm | - | - | - |
| 1777494619 | 26.11° C | 81% | 1010.4 hPa | 0 mm | - | - | - |
| 1777494559 | 23.89° C | 42% | 1020.4 hPa | 0 mm | - | - | - |
| 1777494499 | 26.11° C | 81% | 1010.4 hPa | 0 mm | - | - | - |
| 1777494439 | 23.89° C | 42% | 1020.4 hPa | 0 mm | - | - | - |
| 1777494379 | 26.67° C | 80% | 1010.4 hPa | 0 mm | - | - | - |
| 1777494289 | 23.89° C | 42% | 1020.4 hPa | 0 mm | - | - | - |
| 1777494229 | 26.67° C | 79% | 1010.6 hPa | 0 mm | - | - | - |
| 1777494169 | 26.67° C | 78% | 1010.5 hPa | 0 mm | - | - | - |
| 1777494079 | 23.89° C | 42% | 1020.4 hPa | 0 mm | - | - | - |
| 1777494019 | 27.22° C | 78% | 1010.6 hPa | 0 mm | - | - | - |
| 1777493959 | 27.22° C | 79% | 1010.5 hPa | 0 mm | - | - | - |
| 1777493899 | 27.22° C | 78% | 1010.5 hPa | 0 mm | - | - | - |
| 1777493839 | 26.67° C | 79% | 1010.5 hPa | 0 mm | - | - | - |
* Rain latest hour (hover to see other rain measurements)
** Current wind speed in m/s (hover to see current wind gust speed)